Time,TemperatureF,DewpointF,PressureIn,WindDirection,WindDirectionDegrees,WindSpeedMPH,WindSpeedGustMPH,Humidity,HourlyPrecipIn,Conditions,Clouds,dailyrainin,SoftwareType,DateUTC
2013-04-15 00:00:00,52.6,46.9,29.59,SE,136,10.0,15.0,81,0.00, +TSGR FG,SKC,-99.99,VWS V12.07,2013-04-15 05:00:00,
2013-04-15 00:05:00,52.6,46.9,29.59,SSE,156,10.0,13.0,81,0.00, +TSGR FG,SKC,-99.99,VWS V12.07,2013-04-15 05:05:00,
2013-04-15 00:15:00,52.5,46.5,29.58,SSE,156,10.0,14.0,80,0.00, +TSGR FG,SKC,-99.99,VWS V12.07,2013-04-15 05:15:00,
2013-04-15 00:20:00,52.4,46.4,29.58,SE,145,8.0,14.0,80,0.00, +TSGR FG,SKC,-99.99,VWS V12.07,2013-04-15 05:20:00,
2013-04-15 00:25:00,52.3,46.3,29.58,SSE,157,6.0,13.0,80,0.00, +TSGR FG,SKC,-99.99,VWS V12.07,2013-04-15 05:25:00,
2013-04-15 00:30:00,52.7,46.7,29.58,South,173,5.0,13.0,80,0.00, +TSGR FG,SKC,-99.99,VWS V12.07,2013-04-15 05:30:00,
2013-04-15 00:35:00,53.0,46.7,29.58,SSE,159,9.0,10.0,79,0.00, +TSGR FG,SKC,-99.99,VWS V12.07,2013-04-15 05:35:00,
2013-04-15 00:40:00,53.3,46.6,29.58,SE,136,6.0,11.0,78,0.00, +TSGR FG,SKC,-99.99,VWS V12.07,2013-04-15 05:40:00,
2013-04-15 00:45:00,53.6,46.9,29.58,SE,142,10.0,13.0,78,0.00, +TSGR FG,SKC,-99.99,VWS V12.07,2013-04-15 05:45:00,
2013-04-15 00:50:00,53.7,46.7,29.58,SE,132,7.0,13.0,77,0.00, +TSGR FG,SKC,-99.99,VWS V12.07,2013-04-15 05:50:00,
2013-04-15 00:55:00,53.9,46.9,29.59,South,182,7.0,13.0,77,0.00, +TSGR FG,SKC,-99.99,VWS V12.07,2013-04-15 05:55:00,
2013-04-15 01:05:00,54.6,47.2,29.58,South,176,12.0,13.0,76,0.00, +TSGR FG,SKC,-99.99,VWS V12.07,2013-04-15 06:05:00,
2013-04-15 01:10:00,55.1,47.3,29.58,South,186,6.0,13.0,75,0.00, +TSGR FG,SKC,-99.99,VWS V12.07,2013-04-15 06:10:00,
2013-04-15 01:15:00,55.8,48.0,29.58,South,184,10.0,19.0,75,0.00, +TSGR FG,SKC,-99.99,VWS V12.07,2013-04-15 06:15:00,
2013-04-15 01:20:00,56.5,48.0,29.58,SE,144,7.0,19.0,73,0.00, +TSGR FG,SKC,-99.99,VWS V12.07,2013-04-15 06:20:00,
2013-04-15 01:30:00,58.0,48.3,29.59,SSW,192,7.0,17.0,70,0.00, +TSGR FG,SKC,-99.99,VWS V12.07,2013-04-15 06:30:00,
2013-04-15 01:35:00,58.9,48.8,29.59,South,190,14.0,20.0,69,0.00, +TSGR FG,SKC,-99.99,VWS V12.07,2013-04-15 06:35:00,
2013-04-15 01:45:00,62.4,49.2,29.58,South,187,18.0,27.0,62,0.00, +TSGR FG,SKC,-99.99,VWS V12.07,2013-04-15 06:45:00,
2013-04-15 01:50:00,63.3,49.2,29.58,South,173,16.0,30.0,60,0.00, +TSGR FG,SKC,-99.99,VWS V12.07,2013-04-15 06:50:00,
2013-04-15 01:55:00,63.3,48.7,29.59,South,185,12.0,26.0,59,0.00, +TSGR FG,SKC,-99.99,VWS V12.07,2013-04-15 06:55:00,
2013-04-15 02:05:00,62.4,49.7,29.61,SSE,155,7.0,24.0,63,0.00, +TSGR FG,SKC,-99.99,VWS V12.07,2013-04-15 07:05:00,
2013-04-15 02:45:00,55.9,52.4,29.61,SSW,198,11.0,18.0,88,0.08, +TSGR FG,SKC,-99.99,VWS V12.07,2013-04-15 07:45:00,
2013-04-15 02:50:00,56.1,52.3,29.61,SW,223,16.0,21.0,87,0.08, +TSGR FG,SKC,-99.99,VWS V12.07,2013-04-15 07:50:00,
2013-04-15 02:55:00,56.2,52.4,29.61,South,185,11.0,19.0,87,0.08, +TSGR FG,SKC,-99.99,VWS V12.07,2013-04-15 07:55:00,
2013-04-15 03:00:00,56.2,52.4,29.61,SSW,202,7.0,22.0,87,0.08, +TSGR FG,SKC,-99.99,VWS V12.07,2013-04-15 08:00:00,
2013-04-15 03:05:00,56.0,52.2,29.61,WSW,258,8.0,19.0,87,0.08, +TSGR FG,SKC,-99.99,VWS V12.07,2013-04-15 08:05:00,
2013-04-15 03:10:00,55.8,52.3,29.63,SSW,192,10.0,19.0,88,0.08, +TSGR FG,SKC,-99.99,VWS V12.07,2013-04-15 08:10:00,
2013-04-15 03:15:00,55.7,52.2,29.62,SSW,202,3.0,14.0,88,0.07, +TSGR FG,SKC,-99.99,VWS V12.07,2013-04-15 08:15:00,
2013-04-15 03:20:00,55.7,52.2,29.63,South,190,7.0,14.0,88,0.07, +TSGR FG,SKC,-99.99,VWS V12.07,2013-04-15 08:20:00,
2013-04-15 03:25:00,55.6,52.1,29.63,SSW,197,7.0,11.0,88,0.04, +TSGR FG,SKC,-99.99,VWS V12.07,2013-04-15 08:25:00,
2013-04-15 03:30:00,55.4,52.2,29.63,WSW,245,3.0,11.0,89,0.04, +TSGR FG,SKC,-99.99,VWS V12.07,2013-04-15 08:30:00,
2013-04-15 03:35:00,55.2,52.0,29.63,SSW,198,5.0,8.0,89,0.03, +TSGR FG,SKC,-99.99,VWS V12.07,2013-04-15 08:35:00,
2013-04-15 03:40:00,55.0,52.1,29.62,SSW,204,4.0,8.0,90,0.03, +TSGR FG,SKC,-99.99,VWS V12.07,2013-04-15 08:40:00,
2013-04-15 03:50:00,54.7,51.8,29.62,SSW,198,6.0,11.0,90,0.00, +TSGR FG,SKC,-99.99,VWS V12.07,2013-04-15 08:50:00,
2013-04-15 03:55:00,54.7,52.1,29.63,SSW,208,4.0,9.0,91,0.00, +TSGR FG,SKC,-99.99,VWS V12.07,2013-04-15 08:55:00,
2013-04-15 04:00:00,54.6,52.0,29.63,WSW,257,2.0,11.0,91,0.01, +TSGR FG,SKC,-99.99,VWS V12.07,2013-04-15 09:00:00,
2013-04-15 04:05:00,54.5,51.9,29.63,South,189,5.0,7.0,91,0.01, +TSGR FG,SKC,-99.99,VWS V12.07,2013-04-15 09:05:00,
2013-04-15 04:10:00,54.4,51.8,29.63,SSW,208,5.0,9.0,91,0.01, +TSGR FG,SKC,-99.99,VWS V12.07,2013-04-15 09:10:00,
2013-04-15 04:15:00,54.4,51.8,29.64,West,260,1.0,6.0,91,0.01, +TSGR FG,SKC,-99.99,VWS V12.07,2013-04-15 09:15:00,
2013-04-15 04:20:00,54.3,52.0,29.64,South,190,5.0,10.0,92,0.01, +TSGR FG,SKC,-99.99,VWS V12.07,2013-04-15 09:20:00,
2013-04-15 04:25:00,54.3,51.7,29.64,South,184,2.0,7.0,91,0.01, +TSGR FG,SKC,-99.99,VWS V12.07,2013-04-15 09:25:00,
2013-04-15 04:30:00,54.2,51.9,29.65,SSW,211,2.0,10.0,92,0.01, +TSGR FG,SKC,-99.99,VWS V12.07,2013-04-15 09:30:00,
2013-04-15 04:35:00,54.0,51.7,29.65,South,190,2.0,8.0,92,0.01, +TSGR FG,SKC,-99.99,VWS V12.07,2013-04-15 09:35:00,
2013-04-15 04:40:00,53.9,51.9,29.65,SW,231,2.0,8.0,93,0.02, +TSGR FG,SKC,-99.99,VWS V12.07,2013-04-15 09:40:00,
2013-04-15 04:45:00,53.7,51.7,29.65,SSW,210,1.0,5.0,93,0.02, +TSGR FG,SKC,-99.99,VWS V12.07,2013-04-15 09:45:00,
2013-04-15 04:50:00,53.5,51.5,29.66,West,260,2.0,7.0,93,0.02, +TSGR FG,SKC,-99.99,VWS V12.07,2013-04-15 09:50:00,
2013-04-15 04:55:00,53.4,51.7,29.66,SSW,198,7.0,7.0,94,0.02, +TSGR FG,SKC,-99.99,VWS V12.07,2013-04-15 09:55:00,
2013-04-15 05:00:00,53.4,51.7,29.66,WSW,252,3.0,7.0,94,0.03, +TSGR FG,SKC,-99.99,VWS V12.07,2013-04-15 10:00:00,
2013-04-15 05:05:00,53.3,51.6,29.66,SW,215,3.0,6.0,94,0.02, +TSGR FG,SKC,-99.99,VWS V12.07,2013-04-15 10:05:00,
2013-04-15 05:15:00,53.2,51.5,29.65,South,190,5.0,7.0,94,0.02, +TSGR FG,SKC,-99.99,VWS V12.07,2013-04-15 10:15:00,
2013-04-15 05:20:00,53.1,51.4,29.65,SSW,201,1.0,7.0,94,0.02, +TSGR FG,SKC,-99.99,VWS V12.07,2013-04-15 10:20:00,
2013-04-15 05:25:00,53.1,51.7,29.65,SSW,200,3.0,7.0,95,0.02, +TSGR FG,SKC,-99.99,VWS V12.07,2013-04-15 10:25:00,
2013-04-15 05:30:00,53.0,51.3,29.65,South,182,2.0,7.0,94,0.02, +TSGR FG,SKC,-99.99,VWS V12.07,2013-04-15 10:30:00,
2013-04-15 05:35:00,52.9,51.2,29.66,SSW,205,2.0,5.0,94,0.02, +TSGR FG,SKC,-99.99,VWS V12.07,2013-04-15 10:35:00,
2013-04-15 05:40:00,52.8,51.1,29.66,SSW,207,0.0,5.0,94,0.02, +TSGR FG,SKC,-99.99,VWS V12.07,2013-04-15 10:40:00,
2013-04-15 05:45:00,52.7,51.3,29.65,SSW,207,0.0,2.0,95,0.01, +TSGR FG,SKC,-99.99,VWS V12.07,2013-04-15 10:45:00,
2013-04-15 05:50:00,52.6,51.2,29.65,SSW,207,0.0,3.0,95,0.01, +TSGR FG,SKC,-99.99,VWS V12.07,2013-04-15 10:50:00,
2013-04-15 06:00:00,52.6,51.2,29.65,WSW,250,1.0,4.0,95,0.01, +TSGR FG,SKC,-99.99,VWS V12.07,2013-04-15 11:00:00,
2013-04-15 06:05:00,52.6,51.2,29.65,WSW,256,0.0,2.0,95,0.00, +TSGR FG,SKC,-99.99,VWS V12.07,2013-04-15 11:05:00,
2013-04-15 06:10:00,52.6,51.2,29.65,SSW,212,1.0,4.0,95,0.00, +TSGR FG,SKC,-99.99,VWS V12.07,2013-04-15 11:10:00,
2013-04-15 06:15:00,52.6,51.2,29.65,South,173,2.0,5.0,95,0.00, +TSGR FG,SKC,-99.99,VWS V12.07,2013-04-15 11:15:00,
2013-04-15 06:20:00,52.6,51.2,29.66,South,173,0.0,5.0,95,0.00, +TSGR FG,SKC,-99.99,VWS V12.07,2013-04-15 11:20:00,
2013-04-15 06:25:00,52.6,51.2,29.66,SW,228,1.0,5.0,95,0.00, +TSGR FG,SKC,-99.99,VWS V12.07,2013-04-15 11:25:00,
2013-04-15 06:30:00,52.6,51.2,29.65,SSW,211,5.0,5.0,95,0.00, +TSGR FG,SKC,-99.99,VWS V12.07,2013-04-15 11:30:00,
2013-04-15 06:35:00,52.6,51.2,29.65,SSW,197,0.0,6.0,95,0.00, +TSGR FG,SKC,-99.99,VWS V12.07,2013-04-15 11:35:00,
2013-04-15 06:40:00,52.5,51.1,29.66,SSW,194,2.0,6.0,95,0.00, +TSGR FG,SKC,-99.99,VWS V12.07,2013-04-15 11:40:00,
2013-04-15 06:45:00,52.5,51.1,29.66,SW,230,1.0,6.0,95,0.00, +TSGR FG,SKC,-99.99,VWS V12.07,2013-04-15 11:45:00,
2013-04-15 06:50:00,52.4,51.0,29.67,SW,225,0.0,6.0,95,0.00, +TSGR FG,SKC,-99.99,VWS V12.07,2013-04-15 11:50:00,
2013-04-15 06:55:00,52.4,51.0,29.67,SW,235,4.0,6.0,95,0.00, +TSGR FG,SKC,-99.99,VWS V12.07,2013-04-15 11:55:00,
2013-04-15 07:05:00,52.4,51.0,29.67,SSW,195,0.0,3.0,95,0.00, +TSGR FG,SKC,-99.99,VWS V12.07,2013-04-15 12:05:00,
2013-04-15 07:10:00,52.3,50.9,29.67,South,185,2.0,5.0,95,0.00, +TSGR FG,SKC,-99.99,VWS V12.07,2013-04-15 12:10:00,
2013-04-15 07:20:00,52.3,50.9,29.68,SSW,202,5.0,8.0,95,0.00, +TSGR FG,SKC,-99.99,VWS V12.07,2013-04-15 12:20:00,
2013-04-15 07:25:00,52.4,51.0,29.68,South,189,7.0,8.0,95,0.00, +TSGR FG,SKC,-99.99,VWS V12.07,2013-04-15 12:25:00,
2013-04-15 07:30:00,52.4,51.0,29.68,SSW,213,5.0,8.0,95,0.00, +TSGR FG,SKC,-99.99,VWS V12.07,2013-04-15 12:30:00,
2013-04-15 07:35:00,52.4,51.0,29.69,South,178,7.0,7.0,95,0.00, +TSGR FG,SKC,-99.99,VWS V12.07,2013-04-15 12:35:00,
2013-04-15 07:40:00,52.4,51.0,29.68,SSE,154,4.0,10.0,95,0.00, +TSGR FG,SKC,-99.99,VWS V12.07,2013-04-15 12:40:00,
2013-04-15 07:45:00,52.5,51.1,29.67,South,191,1.0,9.0,95,0.00, +TSGR FG,SKC,-99.99,VWS V12.07,2013-04-15 12:45:00,
2013-04-15 07:50:00,52.6,51.2,29.67,SSW,192,0.0,9.0,95,0.00, +TSGR FG,SKC,-99.99,VWS V12.07,2013-04-15 12:50:00,
2013-04-15 07:55:00,52.7,51.3,29.68,WSW,246,1.0,7.0,95,0.00, +TSGR FG,SKC,-99.99,VWS V12.07,2013-04-15 12:55:00,
2013-04-15 08:00:00,52.9,51.5,29.68,SW,216,3.0,7.0,95,0.00, +TSGR FG,SKC,-99.99,VWS V12.07,2013-04-15 13:00:00,
2013-04-15 08:05:00,52.9,51.5,29.68,SW,219,3.0,7.0,95,0.00, +TSGR FG,SKC,-99.99,VWS V12.07,2013-04-15 13:05:00,
2013-04-15 08:10:00,52.9,51.5,29.69,WSW,240,6.0,11.0,95,0.00, +TSGR FG,SKC,-99.99,VWS V12.07,2013-04-15 13:10:00,
2013-04-15 08:20:00,53.1,51.7,29.67,SSW,199,5.0,9.0,95,0.00, +TSGR FG,SKC,-99.99,VWS V12.07,2013-04-15 13:20:00,
2013-04-15 08:25:00,53.1,51.7,29.68,SW,218,4.0,8.0,95,0.00, +TSGR FG,SKC,-99.99,VWS V12.07,2013-04-15 13:25:00,
2013-04-15 08:30:00,53.0,51.3,29.68,SSE,168,4.0,9.0,94,0.00, +TSGR FG,SKC,-99.99,VWS V12.07,2013-04-15 13:30:00,
2013-04-15 08:35:00,52.9,51.2,29.68,West,275,4.0,5.0,94,0.00, +TSGR FG,SKC,-99.99,VWS V12.07,2013-04-15 13:35:00,
2013-04-15 08:40:00,52.9,51.2,29.68,SSW,202,3.0,5.0,94,0.00, +TSGR FG,SKC,-99.99,VWS V12.07,2013-04-15 13:40:00,
2013-04-15 08:45:00,52.8,51.1,29.68,WSW,256,0.0,6.0,94,0.00, +TSGR FG,SKC,-99.99,VWS V12.07,2013-04-15 13:45:00,
2013-04-15 08:50:00,52.8,51.1,29.68,South,190,0.0,6.0,94,0.00, +TSGR FG,SKC,-99.99,VWS V12.07,2013-04-15 13:50:00,
2013-04-15 08:55:00,52.7,51.0,29.68,SSW,207,0.0,6.0,94,0.00, +TSGR FG,SKC,-99.99,VWS V12.07,2013-04-15 13:55:00,
2013-04-15 09:00:00,52.9,51.2,29.68,WSW,240,2.0,6.0,94,0.00, +TSGR FG,SKC,-99.99,VWS V12.07,2013-04-15 14:00:00,
2013-04-15 09:05:00,53.1,51.7,29.68,SW,236,2.0,5.0,95,0.00, +TSGR FG,SKC,-99.99,VWS V12.07,2013-04-15 14:05:00,
2013-04-15 09:10:00,53.4,52.0,29.68,WSW,251,2.0,5.0,95,0.00, +TSGR FG,SKC,-99.99,VWS V12.07,2013-04-15 14:10:00,
2013-04-15 09:15:00,53.6,51.9,29.69,West,276,3.0,5.0,94,0.00, +TSGR FG,SKC,-99.99,VWS V12.07,2013-04-15 14:15:00,
2013-04-15 09:20:00,53.7,52.0,29.69,WSW,239,0.0,7.0,94,0.00, +TSGR FG,SKC,-99.99,VWS V12.07,2013-04-15 14:20:00,
2013-04-15 09:30:00,54.0,52.3,29.69,SSW,205,2.0,6.0,94,0.00, +TSGR FG,SKC,-99.99,VWS V12.07,2013-04-15 14:30:00,
2013-04-15 09:35:00,54.1,52.4,29.69,SSW,207,7.0,7.0,94,0.00, +TSGR FG,SKC,-99.99,VWS V12.07,2013-04-15 14:35:00,
2013-04-15 09:40:00,54.2,52.5,29.69,SSE,167,5.0,7.0,94,0.00, +TSGR FG,SKC,-99.99,VWS V12.07,2013-04-15 14:40:00,
2013-04-15 09:45:00,54.4,52.4,29.70,West,260,0.0,3.0,93,0.00, +TSGR FG,SKC,-99.99,VWS V12.07,2013-04-15 14:45:00,
2013-04-15 09:50:00,54.5,52.5,29.70,NW,319,5.0,5.0,93,0.00, +TSGR FG,SKC,-99.99,VWS V12.07,2013-04-15 14:50:00,
2013-04-15 09:55:00,54.5,52.5,29.70,SW,226,4.0,5.0,93,0.00, +TSGR FG,SKC,-99.99,VWS V12.07,2013-04-15 14:55:00,
2013-04-15 10:00:00,54.4,52.1,29.70,WSW,250,3.0,9.0,92,0.00, +TSGR FG,SKC,-99.99,VWS V12.07,2013-04-15 15:00:00,
2013-04-15 10:05:00,54.4,52.1,29.70,WSW,248,4.0,5.0,92,0.00, +TSGR FG,SKC,-99.99,VWS V12.07,2013-04-15 15:05:00,
2013-04-15 10:10:00,54.5,52.2,29.70,SW,225,3.0,6.0,92,0.00, +TSGR FG,SKC,-99.99,VWS V12.07,2013-04-15 15:10:00,
2013-04-15 10:15:00,54.7,52.1,29.70,South,188,3.0,12.0,91,0.00, +TSGR FG,SKC,-99.99,VWS V12.07,2013-04-15 15:15:00,
2013-04-15 10:20:00,55.0,52.4,29.70,WNW,282,3.0,12.0,91,0.00, +TSGR FG,SKC,-99.99,VWS V12.07,2013-04-15 15:20:00,
2013-04-15 10:25:00,55.2,52.3,29.70,South,184,6.0,7.0,90,0.00, +TSGR FG,SKC,-99.99,VWS V12.07,2013-04-15 15:25:00,
2013-04-15 10:30:00,55.3,52.1,29.70,WSW,247,5.0,10.0,89,0.00, +TSGR FG,SKC,-99.99,VWS V12.07,2013-04-15 15:30:00,
2013-04-15 10:35:00,55.4,51.9,29.70,South,188,3.0,7.0,88,0.00, +TSGR FG,SKC,-99.99,VWS V12.07,2013-04-15 15:35:00,
2013-04-15 10:40:00,55.5,51.7,29.70,SSW,202,5.0,10.0,87,0.00, +TSGR FG,SKC,-99.99,VWS V12.07,2013-04-15 15:40:00,
2013-04-15 10:45:00,55.8,51.7,29.70,WSW,238,5.0,12.0,86,0.00, +TSGR FG,SKC,-99.99,VWS V12.07,2013-04-15 15:45:00,
2013-04-15 10:50:00,56.1,51.7,29.70,WNW,282,6.0,12.0,85,0.00, +TSGR FG,SKC,-99.99,VWS V12.07,2013-04-15 15:50:00,
2013-04-15 10:55:00,56.2,51.8,29.69,South,188,6.0,10.0,85,0.00, +TSGR FG,SKC,-99.99,VWS V12.07,2013-04-15 15:55:00,
2013-04-15 11:00:00,56.3,51.5,29.69,SW,232,3.0,13.0,84,0.00, +TSGR FG,SKC,-99.99,VWS V12.07,2013-04-15 16:00:00,
2013-04-15 11:05:00,56.4,52.0,29.69,SSW,211,5.0,11.0,85,0.00, +TSGR FG,SKC,-99.99,VWS V12.07,2013-04-15 16:05:00,
2013-04-15 11:10:00,56.6,52.2,29.69,WSW,245,5.0,11.0,85,0.00, +TSGR FG,SKC,-99.99,VWS V12.07,2013-04-15 16:10:00,
2013-04-15 11:20:00,57.1,52.3,29.70,SSW,196,3.0,11.0,84,0.00, +TSGR FG,SKC,-99.99,VWS V12.07,2013-04-15 16:20:00,
2013-04-15 11:30:00,57.4,52.0,29.70,WNW,294,3.0,12.0,82,0.00, +TSGR FG,SKC,-99.99,VWS V12.07,2013-04-15 16:30:00,
2013-04-15 11:40:00,57.6,52.2,29.70,SW,226,0.0,12.0,82,0.00, +TSGR FG,SKC,-99.99,VWS V12.07,2013-04-15 16:40:00,
2013-04-15 11:45:00,58.0,52.2,29.70,WSW,243,4.0,12.0,81,0.00, +TSGR FG,SKC,-99.99,VWS V12.07,2013-04-15 16:45:00,
2013-04-15 11:50:00,58.0,51.9,29.70,WSW,242,3.0,13.0,80,0.00, +TSGR FG,SKC,-99.99,VWS V12.07,2013-04-15 16:50:00,
2013-04-15 11:55:00,57.7,51.6,29.70,SSW,193,8.0,11.0,80,0.00, +TSGR FG,SKC,-99.99,VWS V12.07,2013-04-15 16:55:00,
2013-04-15 12:00:00,57.8,51.7,29.70,WSW,244,5.0,13.0,80,0.00, +TSGR FG,SKC,-99.99,VWS V12.07,2013-04-15 17:00:00,
2013-04-15 12:10:00,57.8,51.3,29.70,South,169,6.0,21.0,79,0.00, +TSGR FG,SKC,-99.99,VWS V12.07,2013-04-15 17:10:00,
2013-04-15 12:15:00,57.7,51.2,29.70,SSE,159,9.0,12.0,79,0.00, +TSGR FG,SKC,-99.99,VWS V12.07,2013-04-15 17:15:00,
2013-04-15 12:20:00,57.8,51.7,29.70,SSW,196,3.0,12.0,80,0.00, +TSGR FG,SKC,-99.99,VWS V12.07,2013-04-15 17:20:00,
2013-04-15 12:25:00,57.9,51.4,29.69,SW,221,9.0,11.0,79,0.00, +TSGR FG,SKC,-99.99,VWS V12.07,2013-04-15 17:25:00,
2013-04-15 12:30:00,58.0,51.2,29.69,WSW,246,4.0,13.0,78,0.00, +TSGR FG,SKC,-99.99,VWS V12.07,2013-04-15 17:30:00,
2013-04-15 12:35:00,58.0,51.2,29.69,SSW,204,10.0,12.0,78,0.00, +TSGR FG,SKC,-99.99,VWS V12.07,2013-04-15 17:35:00,
2013-04-15 12:40:00,58.0,51.5,29.69,South,172,6.0,15.0,79,0.00, +TSGR FG,SKC,-99.99,VWS V12.07,2013-04-15 17:40:00,
2013-04-15 12:45:00,58.3,51.8,29.69,SW,232,6.0,12.0,79,0.00, +TSGR FG,SKC,-99.99,VWS V12.07,2013-04-15 17:45:00,
2013-04-15 12:50:00,58.5,51.3,29.69,WSW,242,7.0,12.0,77,0.00, +TSGR FG,SKC,-99.99,VWS V12.07,2013-04-15 17:50:00,
2013-04-15 12:55:00,58.7,51.9,29.69,South,185,3.0,9.0,78,0.00, +TSGR FG,SKC,-99.99,VWS V12.07,2013-04-15 17:55:00,
2013-04-15 13:00:00,59.3,51.8,29.69,South,188,4.0,13.0,76,0.00, +TSGR FG,SKC,-99.99,VWS V12.07,2013-04-15 18:00:00,
2013-04-15 13:05:00,59.9,52.7,29.70,WSW,252,3.0,10.0,77,0.00, +TSGR FG,SKC,-99.99,VWS V12.07,2013-04-15 18:05:00,
2013-04-15 13:10:00,60.1,51.8,29.70,SSW,193,4.0,14.0,74,0.00, +TSGR FG,SKC,-99.99,VWS V12.07,2013-04-15 18:10:00,
2013-04-15 13:15:00,59.8,51.5,29.71,SW,229,9.0,13.0,74,0.00, +TSGR FG,SKC,-99.99,VWS V12.07,2013-04-15 18:15:00,
2013-04-15 13:20:00,59.6,51.0,29.71,SSW,195,12.0,13.0,73,0.00, +TSGR FG,SKC,-99.99,VWS V12.07,2013-04-15 18:20:00,
2013-04-15 13:25:00,59.8,51.5,29.71,SSE,153,12.0,12.0,74,0.00, +TSGR FG,SKC,-99.99,VWS V12.07,2013-04-15 18:25:00,
2013-04-15 13:30:00,59.8,50.4,29.71,West,267,2.0,15.0,71,0.00, +TSGR FG,SKC,-99.99,VWS V12.07,2013-04-15 18:30:00,
2013-04-15 13:35:00,60.0,51.0,29.71,SSW,197,2.0,12.0,72,0.00, +TSGR FG,SKC,-99.99,VWS V12.07,2013-04-15 18:35:00,
2013-04-15 13:40:00,60.2,51.2,29.71,South,178,8.0,14.0,72,0.00, +TSGR FG,SKC,-99.99,VWS V12.07,2013-04-15 18:40:00,
2013-04-15 13:45:00,60.5,51.4,29.71,South,185,4.0,12.0,72,0.00, +TSGR FG,SKC,-99.99,VWS V12.07,2013-04-15 18:45:00,
2013-04-15 13:50:00,61.1,52.0,29.71,WSW,240,7.0,12.0,72,0.00, +TSGR FG,SKC,-99.99,VWS V12.07,2013-04-15 18:50:00,
2013-04-15 13:55:00,61.4,51.9,29.71,SSW,207,3.0,11.0,71,0.00, +TSGR FG,SKC,-99.99,VWS V12.07,2013-04-15 18:55:00,
2013-04-15 14:00:00,62.0,52.5,29.71,WSW,240,4.0,12.0,71,0.00, +TSGR FG,SKC,-99.99,VWS V12.07,2013-04-15 19:00:00,
2013-04-15 14:05:00,62.6,53.1,29.72,SW,228,8.0,8.0,71,0.00, +TSGR FG,SKC,-99.99,VWS V12.07,2013-04-15 19:05:00,
2013-04-15 14:10:00,62.8,52.1,29.71,SSW,202,2.0,11.0,68,0.00, +TSGR FG,SKC,-99.99,VWS V12.07,2013-04-15 19:10:00,
2013-04-15 14:15:00,62.9,52.2,29.71,SSW,202,6.0,13.0,68,0.00, +TSGR FG,SKC,-99.99,VWS V12.07,2013-04-15 19:15:00,
2013-04-15 14:20:00,63.3,52.2,29.71,West,275,3.0,13.0,67,0.00, +TSGR FG,SKC,-99.99,VWS V12.07,2013-04-15 19:20:00,
2013-04-15 14:25:00,63.3,50.9,29.71,SW,214,5.0,11.0,64,0.00, +TSGR FG,SKC,-99.99,VWS V12.07,2013-04-15 19:25:00,
2013-04-15 14:30:00,63.3,50.5,29.72,West,281,10.0,11.0,63,0.00, +TSGR FG,SKC,-99.99,VWS V12.07,2013-04-15 19:30:00,
2013-04-15 14:40:00,62.4,49.2,29.72,SSE,150,1.0,13.0,62,0.00, +TSGR FG,SKC,-99.99,VWS V12.07,2013-04-15 19:40:00,
2013-04-15 14:45:00,62.2,49.0,29.72,SW,234,2.0,9.0,62,0.00, +TSGR FG,SKC,-99.99,VWS V12.07,2013-04-15 19:45:00,
2013-04-15 14:50:00,62.0,48.4,29.72,WSW,252,6.0,10.0,61,0.00, +TSGR FG,SKC,-99.99,VWS V12.07,2013-04-15 19:50:00,
2013-04-15 14:55:00,61.8,48.7,29.72,NNW,345,1.0,12.0,62,0.00, +TSGR FG,SKC,-99.99,VWS V12.07,2013-04-15 19:55:00,
2013-04-15 15:00:00,61.7,47.2,29.73,West,268,1.0,12.0,59,0.00, +TSGR FG,SKC,-99.99,VWS V12.07,2013-04-15 20:00:00,
2013-04-15 15:05:00,61.2,46.3,29.73,West,275,1.0,7.0,58,0.00, +TSGR FG,SKC,-99.99,VWS V12.07,2013-04-15 20:05:00,
2013-04-15 15:10:00,61.1,47.1,29.73,West,281,4.0,8.0,60,0.00, +TSGR FG,SKC,-99.99,VWS V12.07,2013-04-15 20:10:00,
2013-04-15 15:15:00,61.0,44.7,29.74,South,178,4.0,9.0,55,0.00, +TSGR FG,SKC,-99.99,VWS V12.07,2013-04-15 20:15:00,
2013-04-15 15:20:00,60.9,43.7,29.74,WSW,256,2.0,13.0,53,0.00, +TSGR FG,SKC,-99.99,VWS V12.07,2013-04-15 20:20:00,
2013-04-15 15:25:00,60.6,42.4,29.74,West,262,0.0,9.0,51,0.00, +TSGR FG,SKC,-99.99,VWS V12.07,2013-04-15 20:25:00,
2013-04-15 15:30:00,60.4,42.7,29.75,West,271,1.0,9.0,52,0.00, +TSGR FG,SKC,-99.99,VWS V12.07,2013-04-15 20:30:00,
2013-04-15 15:35:00,60.2,41.5,29.75,NW,319,10.0,10.0,50,0.00, +TSGR FG,SKC,-99.99,VWS V12.07,2013-04-15 20:35:00,
2013-04-15 15:40:00,59.9,42.2,29.75,West,267,2.0,10.0,52,0.00, +TSGR FG,SKC,-99.99,VWS V12.07,2013-04-15 20:40:00,
2013-04-15 15:45:00,59.2,41.6,29.75,WSW,257,1.0,15.0,52,0.00, +TSGR FG,SKC,-99.99,VWS V12.07,2013-04-15 20:45:00,
2013-04-15 15:50:00,58.6,41.0,29.76,NW,320,4.0,15.0,52,0.00, +TSGR FG,SKC,-99.99,VWS V12.07,2013-04-15 20:50:00,
2013-04-15 15:55:00,58.2,40.2,29.77,West,259,3.0,10.0,51,0.00, +TSGR FG,SKC,-99.99,VWS V12.07,2013-04-15 20:55:00,
2013-04-15 16:00:00,57.8,40.3,29.77,WSW,257,2.0,10.0,52,0.00, +TSGR FG,SKC,-99.99,VWS V12.07,2013-04-15 21:00:00,
2013-04-15 16:05:00,57.3,39.8,29.77,WNW,298,1.0,12.0,52,0.00, +TSGR FG,SKC,-99.99,VWS V12.07,2013-04-15 21:05:00,
2013-04-15 16:10:00,57.0,39.6,29.77,WSW,244,2.0,12.0,52,0.00, +TSGR FG,SKC,-99.99,VWS V12.07,2013-04-15 21:10:00,
2013-04-15 16:15:00,56.7,40.3,29.78,SSW,211,0.0,7.0,54,0.00, +TSGR FG,SKC,-99.99,VWS V12.07,2013-04-15 21:15:00,
2013-04-15 16:20:00,56.5,39.6,29.78,WNW,284,3.0,7.0,53,0.00, +TSGR FG,SKC,-99.99,VWS V12.07,2013-04-15 21:20:00,
2013-04-15 16:25:00,56.4,38.5,29.77,WSW,245,5.0,7.0,51,0.00, +TSGR FG,SKC,-99.99,VWS V12.07,2013-04-15 21:25:00,
2013-04-15 16:30:00,56.3,38.4,29.76,WNW,286,3.0,7.0,51,0.00, +TSGR FG,SKC,-99.99,VWS V12.07,2013-04-15 21:30:00,
2013-04-15 16:35:00,56.1,37.2,29.77,SE,146,2.0,7.0,49,0.00, +TSGR FG,SKC,-99.99,VWS V12.07,2013-04-15 21:35:00,
2013-04-15 16:40:00,56.0,37.6,29.77,West,280,1.0,7.0,50,0.00, +TSGR FG,SKC,-99.99,VWS V12.07,2013-04-15 21:40:00,
2013-04-15 16:45:00,55.8,38.5,29.78,West,272,4.0,7.0,52,0.00, +TSGR FG,SKC,-99.99,VWS V12.07,2013-04-15 21:45:00,
2013-04-15 16:50:00,55.6,38.8,29.77,WSW,237,2.0,9.0,53,0.00, +TSGR FG,SKC,-99.99,VWS V12.07,2013-04-15 21:50:00,
2013-04-15 16:55:00,55.5,38.7,29.77,NW,314,1.0,3.0,53,0.00, +TSGR FG,SKC,-99.99,VWS V12.07,2013-04-15 21:55:00,
2013-04-15 17:00:00,55.3,39.9,29.78,NE,37,2.0,6.0,56,0.00, +TSGR FG,SKC,-99.99,VWS V12.07,2013-04-15 22:00:00,
2013-04-15 17:05:00,55.1,40.2,29.79,West,278,5.0,9.0,57,0.00, +TSGR FG,SKC,-99.99,VWS V12.07,2013-04-15 22:05:00,
2013-04-15 17:10:00,54.7,39.8,29.78,West,274,3.0,10.0,57,0.00, +TSGR FG,SKC,-99.99,VWS V12.07,2013-04-15 22:10:00,
2013-04-15 17:15:00,54.4,40.8,29.79,NNW,340,2.0,8.0,60,0.00, +TSGR FG,SKC,-99.99,VWS V12.07,2013-04-15 22:15:00,
2013-04-15 17:20:00,53.6,41.3,29.80,West,275,2.0,9.0,63,0.00, +TSGR FG,SKC,-99.99,VWS V12.07,2013-04-15 22:20:00,
2013-04-15 17:25:00,52.4,41.4,29.81,WNW,296,3.0,7.0,66,0.00, +TSGR FG,SKC,-99.99,VWS V12.07,2013-04-15 22:25:00,
2013-04-15 17:30:00,51.5,40.9,29.80,West,269,4.0,9.0,67,0.00, +TSGR FG,SKC,-99.99,VWS V12.07,2013-04-15 22:30:00,
2013-04-15 17:35:00,50.9,41.1,29.80,NW,307,2.0,7.0,69,0.00, +TSGR FG,SKC,-99.99,VWS V12.07,2013-04-15 22:35:00,
2013-04-15 17:40:00,50.5,41.1,29.81,West,267,0.0,7.0,70,0.00, +TSGR FG,SKC,-99.99,VWS V12.07,2013-04-15 22:40:00,
2013-04-15 17:45:00,50.0,41.0,29.81,West,278,5.0,6.0,71,0.00, +TSGR FG,SKC,-99.99,VWS V12.07,2013-04-15 22:45:00,
2013-04-15 17:50:00,49.6,40.6,29.80,NNW,333,0.0,6.0,71,0.00, +TSGR FG,SKC,-99.99,VWS V12.07,2013-04-15 22:50:00,
2013-04-15 17:55:00,49.3,41.0,29.80,WNW,287,0.0,4.0,73,0.00, +TSGR FG,SKC,-99.99,VWS V12.07,2013-04-15 22:55:00,
2013-04-15 18:00:00,49.1,40.8,29.79,WNW,283,0.0,7.0,73,0.00, +TSGR FG,SKC,-99.99,VWS V12.07,2013-04-15 23:00:00,
2013-04-15 18:05:00,48.9,41.7,29.80,WNW,283,0.0,5.0,76,0.00, +TSGR FG,SKC,-99.99,VWS V12.07,2013-04-15 23:05:00,
2013-04-15 18:10:00,48.3,42.1,29.81,West,278,1.0,5.0,79,0.01, +TSGR FG,SKC,-99.99,VWS V12.07,2013-04-15 23:10:00,
2013-04-15 18:15:00,47.7,41.8,29.80,SW,225,1.0,3.0,80,0.01, +TSGR FG,SKC,-99.99,VWS V12.07,2013-04-15 23:15:00,
2013-04-15 18:20:00,47.2,42.0,29.80,WSW,240,3.0,4.0,82,0.02, +TSGR FG,SKC,-99.99,VWS V12.07,2013-04-15 23:20:00,
2013-04-15 18:25:00,46.8,42.2,29.80,SSW,205,0.0,5.0,84,0.02, +TSGR FG,SKC,-99.99,VWS V12.07,2013-04-15 23:25:00,
2013-04-15 18:30:00,46.5,42.2,29.79,WSW,258,4.0,5.0,85,0.03, +TSGR FG,SKC,-99.99,VWS V12.07,2013-04-15 23:30:00,
2013-04-15 18:35:00,46.2,42.5,29.79,SSW,207,0.0,4.0,87,0.04, +TSGR FG,SKC,-99.99,VWS V12.07,2013-04-15 23:35:00,
2013-04-15 18:40:00,46.1,42.8,29.78,SSW,207,0.0,4.0,88,0.04, +TSGR FG,SKC,-99.99,VWS V12.07,2013-04-15 23:40:00,
2013-04-15 18:45:00,46.0,42.7,29.78,SSW,209,2.0,6.0,88,0.04, +TSGR FG,SKC,-99.99,VWS V12.07,2013-04-15 23:45:00,
2013-04-15 18:50:00,45.8,42.8,29.78,South,182,1.0,6.0,89,0.05, +TSGR FG,SKC,-99.99,VWS V12.07,2013-04-15 23:50:00,
2013-04-15 18:55:00,45.7,42.7,29.78,West,261,0.0,5.0,89,0.06, +TSGR FG,SKC,-99.99,VWS V12.07,2013-04-15 23:55:00,
2013-04-15 19:00:00,45.5,42.7,29.78,SW,234,0.0,5.0,90,0.08, +TSGR FG,SKC,-99.99,VWS V12.07,2013-04-16 00:00:00,
2013-04-15 19:05:00,45.3,42.5,29.79,SSW,196,0.0,6.0,90,0.09, +TSGR FG,SKC,-99.99,VWS V12.07,2013-04-16 00:05:00,
2013-04-15 19:10:00,45.1,42.6,29.79,West,269,1.0,6.0,91,0.12, +TSGR FG,SKC,-99.99,VWS V12.07,2013-04-16 00:10:00,
2013-04-15 19:20:00,44.7,42.5,29.79,SSW,210,0.0,4.0,92,0.15, +TSGR FG,SKC,-99.99,VWS V12.07,2013-04-16 00:20:00,
2013-04-15 19:25:00,44.5,42.3,29.79,South,190,0.0,4.0,92,0.16, +TSGR FG,SKC,-99.99,VWS V12.07,2013-04-16 00:25:00,
2013-04-15 19:30:00,44.4,42.2,29.79,SW,219,2.0,4.0,92,0.17, +TSGR FG,SKC,-99.99,VWS V12.07,2013-04-16 00:30:00,
2013-04-15 19:35:00,44.3,42.4,29.79,WSW,251,2.0,5.0,93,0.17, +TSGR FG,SKC,-99.99,VWS V12.07,2013-04-16 00:35:00,
2013-04-15 19:45:00,44.2,42.3,29.78,WSW,251,0.0,4.0,93,0.17, +TSGR FG,SKC,-99.99,VWS V12.07,2013-04-16 00:45:00,
2013-04-15 19:50:00,44.2,42.3,29.78,SW,222,0.0,7.0,93,0.18, +TSGR FG,SKC,-99.99,VWS V12.07,2013-04-16 00:50:00,
2013-04-15 19:55:00,44.2,42.3,29.78,SW,229,1.0,4.0,93,0.18, +TSGR FG,SKC,-99.99,VWS V12.07,2013-04-16 00:55:00,
2013-04-15 20:00:00,44.3,42.7,29.79,SW,219,0.0,4.0,94,0.19, +TSGR FG,SKC,-99.99,VWS V12.07,2013-04-16 01:00:00,
2013-04-15 20:05:00,44.2,42.6,29.78,SW,219,0.0,3.0,94,0.16, +TSGR FG,SKC,-99.99,VWS V12.07,2013-04-16 01:05:00,
2013-04-15 20:10:00,44.2,42.6,29.79,SW,219,0.0,3.0,94,0.17, +TSGR FG,SKC,-99.99,VWS V12.07,2013-04-16 01:10:00,
2013-04-15 20:20:00,44.2,42.6,29.81,South,190,2.0,4.0,94,0.14, +TSGR FG,SKC,-99.99,VWS V12.07,2013-04-16 01:20:00,
2013-04-15 20:25:00,44.2,42.6,29.81,SW,235,3.0,4.0,94,0.10, +TSGR FG,SKC,-99.99,VWS V12.07,2013-04-16 01:25:00,
2013-04-15 20:30:00,44.1,42.5,29.81,SSW,200,0.0,5.0,94,0.10, +TSGR FG,SKC,-99.99,VWS V12.07,2013-04-16 01:30:00,
2013-04-15 20:35:00,44.1,42.5,29.82,SW,219,1.0,3.0,94,0.07, +TSGR FG,SKC,-99.99,VWS V12.07,2013-04-16 01:35:00,
2013-04-15 20:40:00,44.0,42.4,29.81,SW,235,0.0,5.0,94,0.08, +TSGR FG,SKC,-99.99,VWS V12.07,2013-04-16 01:40:00,
2013-04-15 20:45:00,43.9,42.3,29.81,SSE,167,0.0,5.0,94,0.08, +TSGR FG,SKC,-99.99,VWS V12.07,2013-04-16 01:45:00,
2013-04-15 20:50:00,43.8,42.2,29.82,WSW,250,0.0,6.0,94,0.10, +TSGR FG,SKC,-99.99,VWS V12.07,2013-04-16 01:50:00,
2013-04-15 20:55:00,43.6,42.0,29.83,WSW,249,0.0,6.0,94,0.08, +TSGR FG,SKC,-99.99,VWS V12.07,2013-04-16 01:55:00,
2013-04-15 21:00:00,43.6,42.0,29.83,SSW,213,2.0,6.0,94,0.09, +TSGR FG,SKC,-99.99,VWS V12.07,2013-04-16 02:00:00,
2013-04-15 21:05:00,43.5,41.9,29.83,SW,232,1.0,3.0,94,0.07, +TSGR FG,SKC,-99.99,VWS V12.07,2013-04-16 02:05:00,
2013-04-15 21:10:00,43.4,41.8,29.84,SW,224,1.0,5.0,94,0.07, +TSGR FG,SKC,-99.99,VWS V12.07,2013-04-16 02:10:00,
2013-04-15 21:15:00,43.3,41.7,29.83,West,265,0.0,3.0,94,0.07, +TSGR FG,SKC,-99.99,VWS V12.07,2013-04-16 02:15:00,
2013-04-15 21:20:00,43.3,41.7,29.85,SW,216,3.0,6.0,94,0.07, +TSGR FG,SKC,-99.99,VWS V12.07,2013-04-16 02:20:00,
2013-04-15 21:25:00,43.3,41.7,29.85,SE,144,0.0,4.0,94,0.06, +TSGR FG,SKC,-99.99,VWS V12.07,2013-04-16 02:25:00,
2013-04-15 21:30:00,43.3,41.7,29.84,SW,230,0.0,4.0,94,0.06, +TSGR FG,SKC,-99.99,VWS V12.07,2013-04-16 02:30:00,
2013-04-15 21:35:00,43.3,41.7,29.83,NW,313,0.0,4.0,94,0.06, +TSGR FG,SKC,-99.99,VWS V12.07,2013-04-16 02:35:00,
2013-04-15 21:40:00,43.2,41.6,29.86,SW,230,3.0,6.0,94,0.07, +TSGR FG,SKC,-99.99,VWS V12.07,2013-04-16 02:40:00,
2013-04-15 21:45:00,43.1,41.5,29.86,South,188,2.0,6.0,94,0.07, +TSGR FG,SKC,-99.99,VWS V12.07,2013-04-16 02:45:00,
2013-04-15 21:50:00,43.1,41.5,29.86,SW,229,1.0,9.0,94,0.08, +TSGR FG,SKC,-99.99,VWS V12.07,2013-04-16 02:50:00,
2013-04-15 21:55:00,43.1,41.5,29.86,SW,214,0.0,3.0,94,0.05, +TSGR FG,SKC,-99.99,VWS V12.07,2013-04-16 02:55:00,
2013-04-15 22:00:00,43.0,41.4,29.86,WSW,244,2.0,5.0,94,0.06, +TSGR FG,SKC,-99.99,VWS V12.07,2013-04-16 03:00:00,
2013-04-15 22:05:00,42.9,41.3,29.86,SSW,196,1.0,5.0,94,0.05, +TSGR FG,SKC,-99.99,VWS V12.07,2013-04-16 03:05:00,
2013-04-15 22:10:00,42.9,41.3,29.86,SSW,205,3.0,5.0,94,0.05, +TSGR FG,SKC,-99.99,VWS V12.07,2013-04-16 03:10:00,
2013-04-15 22:15:00,42.9,41.3,29.85,NW,315,0.0,3.0,94,0.05, +TSGR FG,SKC,-99.99,VWS V12.07,2013-04-16 03:15:00,
2013-04-15 22:20:00,42.9,41.3,29.87,SSW,213,0.0,3.0,94,0.05, +TSGR FG,SKC,-99.99,VWS V12.07,2013-04-16 03:20:00,
2013-04-15 22:25:00,42.9,41.3,29.87,SSW,208,2.0,4.0,94,0.05, +TSGR FG,SKC,-99.99,VWS V12.07,2013-04-16 03:25:00,
2013-04-15 22:30:00,42.9,41.3,29.87,SSW,208,2.0,4.0,94,0.06, +TSGR FG,SKC,-99.99,VWS V12.07,2013-04-16 03:30:00,
2013-04-15 22:35:00,42.9,41.3,29.88,SSW,211,0.0,3.0,94,0.07, +TSGR FG,SKC,-99.99,VWS V12.07,2013-04-16 03:35:00,
2013-04-15 22:40:00,42.9,41.3,29.89,West,277,1.0,5.0,94,0.08, +TSGR FG,SKC,-99.99,VWS V12.07,2013-04-16 03:40:00,
2013-04-15 22:45:00,42.9,41.3,29.88,WSW,251,3.0,5.0,94,0.07, +TSGR FG,SKC,-99.99,VWS V12.07,2013-04-16 03:45:00,
2013-04-15 22:50:00,42.8,41.2,29.88,SW,224,4.0,7.0,94,0.08, +TSGR FG,SKC,-99.99,VWS V12.07,2013-04-16 03:50:00,
2013-04-15 22:55:00,42.8,41.5,29.89,SSW,211,1.0,4.0,95,0.06, +TSGR FG,SKC,-99.99,VWS V12.07,2013-04-16 03:55:00,
2013-04-15 23:00:00,42.8,41.5,29.88,SW,227,3.0,5.0,95,0.06, +TSGR FG,SKC,-99.99,VWS V12.07,2013-04-16 04:00:00,
2013-04-15 23:05:00,42.8,41.5,29.87,WNW,288,0.0,4.0,95,0.06, +TSGR FG,SKC,-99.99,VWS V12.07,2013-04-16 04:05:00,
2013-04-15 23:10:00,42.7,41.4,29.88,South,187,2.0,5.0,95,0.06, +TSGR FG,SKC,-99.99,VWS V12.07,2013-04-16 04:10:00,
2013-04-15 23:15:00,42.6,41.3,29.88,SW,229,4.0,6.0,95,0.08, +TSGR FG,SKC,-99.99,VWS V12.07,2013-04-16 04:15:00,
2013-04-15 23:20:00,42.5,41.2,29.88,SSW,201,3.0,6.0,95,0.09, +TSGR FG,SKC,-99.99,VWS V12.07,2013-04-16 04:20:00,
2013-04-15 23:25:00,42.5,41.2,29.88,SW,223,1.0,3.0,95,0.09, +TSGR FG,SKC,-99.99,VWS V12.07,2013-04-16 04:25:00,
2013-04-15 23:30:00,42.4,41.1,29.87,WSW,240,1.0,4.0,95,0.09, +TSGR FG,SKC,-99.99,VWS V12.07,2013-04-16 04:30:00,
2013-04-15 23:35:00,42.2,40.9,29.88,West,262,6.0,6.0,95,0.09, +TSGR FG,SKC,-99.99,VWS V12.07,2013-04-16 04:35:00,
2013-04-15 23:40:00,42.1,40.8,29.88,WSW,248,0.0,6.0,95,0.09, +TSGR FG,SKC,-99.99,VWS V12.07,2013-04-16 04:40:00,
2013-04-15 23:45:00,42.0,40.7,29.87,SW,235,0.0,3.0,95,0.07, +TSGR FG,SKC,-99.99,VWS V12.07,2013-04-16 04:45:00,
2013-04-15 23:50:00,41.9,40.6,29.87,SSW,213,0.0,4.0,95,0.07, +TSGR FG,SKC,-99.99,VWS V12.07,2013-04-16 04:50:00,
2013-04-15 23:55:00,41.9,40.6,29.88,WSW,238,2.0,2.0,95,0.06, +TSGR FG,SKC,-99.99,VWS V12.07,2013-04-16 04:55:00,